Terminal Aerodrome Forecast
Issued by NWS Wilmington, OH

Current Version | Previous Version | Graphics & Text | Print | Product List | Glossary On
Versions: 1 2 3 4 5 6 7 8 9 10 11 12 13 14 15 16 17
000
FTUS41 KILN 171100 AAA
TAFILN
TAF AMD
KILN 171151Z 1712/1812 27013KT P6SM VCSH OVC016
      TEMPO 1712/1714 3SM -SHSN
     FM171500 27014KT P6SM OVC015
     FM180100 28008KT P6SM OVC018=

USA.gov is the U.S. government's official web portal to all federal, state and local government web resources and services.